Time;durP1;ratioP1;P1;durP2;ratioP2;P2;SDS_P1;SDS_P2;PMS_P1;PMS_P2;Temp;Humidity;BMP_temperature;BMP_pressure;BME280_temperature;BME280_humidity;BME280_pressure;Samples;Min_cycle;Max_cycle;Signal;HPM_P1;HPM_P2
2022/09/26 04:17:17;;;;;;;19.35;6.63;;;;;;;9.57;100.00;99604.25;5113484;23;20085;-61
2022/09/26 04:19:45;;;;;;;9.88;4.82;;;;;;;9.51;100.00;99595.16;4972331;28;20093;-61
2022/09/26 04:22:11;;;;;;;21.17;8.07;;;;;;;9.47;100.00;99592.06;4973354;28;20042;-60
2022/09/26 04:24:37;;;;;;;17.50;7.97;;;;;;;9.45;100.00;99585.25;4972344;28;20038;-59
2022/09/26 04:27:03;;;;;;;19.35;8.20;;;;;;;9.35;100.00;99580.22;4972206;28;20043;-60
2022/09/26 04:29:29;;;;;;;10.25;5.20;;;;;;;9.30;100.00;99579.94;4972359;28;20061;-61
2022/09/26 04:32:15;;;;;;;16.40;6.82;;;;;;;9.28;100.00;99584.63;4972018;28;20043;-65
2022/09/26 04:35:05;;;;;;;15.32;5.18;;;;;;;9.23;100.00;99576.34;4945204;28;20046;-63
2022/09/26 04:37:30;;;;;;;19.50;7.10;;;;;;;9.20;100.00;99576.72;4971718;28;20137;-62
2022/09/26 04:39:56;;;;;;;22.13;7.93;;;;;;;9.13;100.00;99565.16;4972704;28;20043;-62
2022/09/26 04:42:24;;;;;;;18.73;5.40;;;;;;;9.11;100.00;99565.31;4970844;28;20043;-63
2022/09/26 04:44:49;;;;;;;10.90;4.50;;;;;;;9.09;100.00;99564.69;4971173;28;20039;-63
2022/09/26 04:47:15;;;;;;;9.43;4.35;;;;;;;9.08;100.00;99568.34;4972364;28;20063;-62
2022/09/26 04:50:01;;;;;;;18.45;7.78;;;;;;;9.08;100.00;99564.88;4972260;28;20050;-63
2022/09/26 04:52:26;;;;;;;12.55;5.55;;;;;;;9.05;100.00;99566.03;4971057;28;20121;-63
2022/09/26 04:54:52;;;;;;;13.48;5.47;;;;;;;9.03;100.00;99567.25;4971254;28;20038;-64
2022/09/26 04:57:18;;;;;;;9.82;4.50;;;;;;;9.00;100.00;99565.78;4971143;28;20042;-63
2022/09/26 04:59:44;;;;;;;15.07;4.47;;;;;;;8.98;100.00;99568.59;4972599;28;20405;-63
2022/09/26 05:02:10;;;;;;;10.10;4.70;;;;;;;8.95;100.00;99568.97;4970917;28;20129;-63
2022/09/26 05:04:39;;;;;;;10.82;4.65;;;;;;;8.89;100.00;99567.03;4971336;28;20126;-62
2022/09/26 05:07:05;;;;;;;13.27;5.22;;;;;;;8.84;100.00;99558.75;4971123;28;20472;-63
2022/09/26 05:09:31;;;;;;;10.75;5.40;;;;;;;8.79;100.00;99563.78;4971044;28;20038;-65
2022/09/26 05:12:12;;;;;;;13.70;5.40;;;;;;;8.79;100.00;99560.28;4970892;28;20422;-63
2022/09/26 05:14:40;;;;;;;10.43;4.97;;;;;;;8.75;100.00;99557.19;4971442;28;20066;-62
2022/09/26 05:17:08;;;;;;;7.93;3.75;;;;;;;8.74;100.00;99552.88;4972439;28;20050;-62
2022/09/26 05:19:34;;;;;;;11.10;4.97;;;;;;;8.72;100.00;99557.53;4970995;28;20126;-62
2022/09/26 05:22:17;;;;;;;11.65;4.50;;;;;;;8.70;100.00;99555.06;4957019;28;20403;-63
2022/09/26 05:27:26;;;;;;;9.45;4.60;;;;;;;8.67;100.00;99549.25;4970997;28;20039;-63
2022/09/26 05:29:54;;;;;;;9.52;3.92;;;;;;;8.64;100.00;99541.66;4970745;28;20061;-62
2022/09/26 05:32:21;;;;;;;12.10;5.80;;;;;;;8.70;100.00;99547.09;4971181;28;20053;-63
2022/09/26 05:34:49;;;;;;;11.52;3.97;;;;;;;8.67;100.00;99543.94;4971089;28;20043;-63
2022/09/26 05:37:17;;;;;;;8.38;4.30;;;;;;;8.64;100.00;99539.81;4955320;28;20035;-63
2022/09/26 05:42:43;;;;;;;8.60;4.38;;;;;;;8.66;100.00;99543.13;4905900;28;20042;-63
2022/09/26 05:45:09;;;;;;;9.05;3.80;;;;;;;8.69;100.00;99539.31;4971054;28;20053;-63
2022/09/26 05:47:35;;;;;;;7.78;3.40;;;;;;;8.67;100.00;99533.31;4971030;28;20031;-66
2022/09/26 05:50:08;;;;;;;10.13;4.38;;;;;;;8.65;100.00;99538.81;4970606;28;20118;-63
2022/09/26 05:52:38;;;;;;;10.07;4.22;;;;;;;8.66;100.00;99542.28;4970905;28;20050;-63
2022/09/26 05:55:04;;;;;;;7.80;3.80;;;;;;;8.65;100.00;99541.47;4972470;28;20034;-63
2022/09/26 05:57:53;;;;;;;13.93;4.40;;;;;;;8.69;100.00;99547.28;4975767;28;20593;-63
2022/09/26 06:00:21;;;;;;;9.05;3.20;;;;;;;8.68;100.00;99545.63;4974223;28;20046;-63
2022/09/26 06:02:54;;;;;;;9.00;3.70;;;;;;;8.65;100.00;99540.66;4975895;28;20154;-63
2022/09/26 06:05:45;;;;;;;6.25;3.30;;;;;;;8.70;100.00;99540.94;4974402;28;20101;-63
2022/09/26 06:08:16;;;;;;;7.53;3.30;;;;;;;8.61;100.00;99518.97;4958976;28;20592;-65
2022/09/26 06:10:53;;;;;;;5.78;2.72;;;;;;;8.72;100.00;99523.00;4974169;28;20054;-62
2022/09/26 06:13:20;;;;;;;8.25;3.88;;;;;;;8.77;100.00;99533.91;4974466;28;20050;-49
2022/09/26 06:15:48;;;;;;;5.55;3.03;;;;;;;8.77;100.00;99533.09;4974084;28;20042;-51
2022/09/26 06:18:14;;;;;;;9.57;4.10;;;;;;;8.82;100.00;99526.25;4975555;28;20477;-49
2022/09/26 06:20:39;;;;;;;12.13;3.55;;;;;;;8.89;100.00;99539.63;4957712;28;20039;-51
2022/09/26 06:23:05;;;;;;;7.85;3.97;;;;;;;8.91;100.00;99534.97;4974286;28;20489;-50
2022/09/26 06:25:31;;;;;;;8.60;3.67;;;;;;;8.94;100.00;99530.13;4974143;28;20041;-61
2022/09/26 06:27:59;;;;;;;10.07;3.20;;;;;;;9.00;100.00;99533.03;4974034;28;20066;-61
2022/09/26 06:30:25;;;;;;;8.00;3.50;;;;;;;9.05;100.00;99530.69;4973694;28;20526;-62
2022/09/26 06:32:59;;;;;;;5.90;2.95;;;;;;;9.08;100.00;99538.31;4973975;28;20034;-62
2022/09/26 06:36:00;;;;;;;7.45;3.38;;;;;;;9.15;100.00;99521.44;4944926;28;20086;-60
2022/09/26 06:38:31;;;;;;;7.50;3.63;;;;;;;9.21;100.00;99514.59;4974035;28;20034;-61
2022/09/26 06:40:56;;;;;;;7.10;3.30;;;;;;;9.24;100.00;99514.22;4973588;28;20042;-60
2022/09/26 06:43:22;;;;;;;6.65;3.05;;;;;;;9.27;100.00;99515.69;4973652;28;20045;-61
2022/09/26 06:46:10;;;;;;;7.75;3.65;;;;;;;9.31;100.00;99514.31;4954373;28;20054;-58
2022/09/26 06:48:54;;;;;;;5.57;3.10;;;;;;;9.31;100.00;99509.00;4973568;28;20037;-61
2022/09/26 06:51:38;;;;;;;5.72;2.95;;;;;;;9.38;100.00;99510.72;4973285;28;20053;-61
2022/09/26 06:54:03;;;;;;;6.28;3.17;;;;;;;9.38;100.00;99505.41;4973573;28;20039;-62
2022/09/26 06:56:29;;;;;;;9.85;3.30;;;;;;;9.42;100.00;99501.41;4973788;28;20035;-61
2022/09/26 06:58:54;;;;;;;7.13;3.60;;;;;;;9.42;100.00;99497.91;4973418;28;20126;-59
2022/09/26 07:01:28;;;;;;;8.32;3.53;;;;;;;9.43;100.00;99495.06;4973184;28;20037;-61
2022/09/26 07:04:20;;;;;;;8.65;4.05;;;;;;;9.48;100.00;99492.69;4944492;28;20529;-57
2022/09/26 07:07:05;;;;;;;5.30;3.13;;;;;;;9.47;100.00;99488.38;4973957;28;20061;-61
2022/09/26 07:09:32;;;;;;;10.15;3.78;;;;;;;9.49;100.00;99491.66;4974673;28;20039;-61
2022/09/26 07:12:14;;;;;;;6.88;3.60;;;;;;;9.58;100.00;99486.25;4974225;28;20035;-61
2022/09/26 07:14:40;;;;;;;5.70;3.50;;;;;;;9.66;100.00;99491.50;4972961;28;20045;-60
2022/09/26 07:17:28;;;;;;;10.15;4.18;;;;;;;9.71;100.00;99492.56;4968790;28;20057;-61
2022/09/26 07:20:03;;;;;;;7.35;3.08;;;;;;;9.79;100.00;99487.16;4974249;28;20109;-61
2022/09/26 07:22:52;;;;;;;8.43;4.15;;;;;;;9.84;100.00;99494.56;4973080;28;20046;-61
2022/09/26 07:25:18;;;;;;;10.98;4.05;;;;;;;9.97;100.00;99502.69;4972921;28;20038;-61
2022/09/26 07:27:49;;;;;;;8.07;3.53;;;;;;;10.03;100.00;99503.78;4972912;28;20042;-61
2022/09/26 07:30:15;;;;;;;10.82;4.50;;;;;;;10.12;100.00;99501.84;4972507;28;20031;-60
2022/09/26 07:32:59;;;;;;;9.15;3.95;;;;;;;10.27;100.00;99499.97;4972872;28;20042;-61
2022/09/26 07:35:35;;;;;;;8.30;3.45;;;;;;;10.36;100.00;99492.69;4972668;28;20105;-62
2022/09/26 07:38:01;;;;;;;;;;;;;;;10.46;100.00;99493.22;4973335;28;20051;-62
2022/09/26 07:40:27;;;;;;;8.77;3.97;;;;;;;10.55;100.00;99484.88;4973673;28;19916;-62
2022/09/26 07:42:57;;;;;;;7.57;3.63;;;;;;;10.64;100.00;99488.25;4972685;28;20038;-62
2022/09/26 07:51:10;;;;;;;9.75;3.35;;;;;;;10.95;100.00;99476.38;4973859;28;20078;-63
2022/09/26 07:53:42;;;;;;;7.85;3.00;;;;;;;11.03;100.00;99477.09;4972547;28;20046;-62
2022/09/26 07:56:26;;;;;;;7.00;2.97;;;;;;;11.18;100.00;99473.47;4973798;28;20177;-60
2022/09/26 07:59:02;;;;;;;6.63;2.83;;;;;;;11.29;100.00;99472.94;4972595;28;20414;-61
2022/09/26 08:01:57;;;;;;;7.15;3.33;;;;;;;11.44;100.00;99459.47;4937386;28;20066;-61
2022/09/26 08:04:34;;;;;;;6.20;2.92;;;;;;;11.59;100.00;99444.97;4972321;28;20581;-62
2022/09/26 08:07:03;;;;;;;5.40;3.45;;;;;;;11.87;100.00;99444.09;4972543;28;20069;-62
2022/09/26 08:09:30;;;;;;;5.18;3.22;;;;;;;12.03;100.00;99445.56;4972238;28;20019;-62
2022/09/26 08:12:18;;;;;;;7.57;3.38;;;;;;;12.13;100.00;99444.16;4936755;28;20050;-61
2022/09/26 08:15:00;;;;;;;6.90;3.35;;;;;;;12.27;100.00;99447.66;4972202;28;20039;-59
2022/09/26 08:17:39;;;;;;;3.83;2.85;;;;;;;12.39;100.00;99442.53;4971754;28;20046;-60
2022/09/26 08:20:05;;;;;;;7.40;3.67;;;;;;;12.59;100.00;99446.03;4973278;28;20030;-61
2022/09/26 08:22:31;;;;;;;5.40;2.88;;;;;;;12.76;100.00;99446.44;4971844;28;20387;-62
2022/09/26 08:24:59;;;;;;;10.35;3.83;;;;;;;12.86;100.00;99432.66;4971967;28;20031;-61
2022/09/26 08:27:42;;;;;;;6.65;3.33;;;;;;;13.02;100.00;99440.25;4971921;28;20075;-62
2022/09/26 08:30:09;;;;;;;8.90;3.22;;;;;;;13.08;99.38;99430.56;4971622;28;20043;-62
2022/09/26 08:32:36;;;;;;;5.53;3.20;;;;;;;13.25;99.61;99437.97;4971741;28;20112;-62
2022/09/26 08:35:02;;;;;;;6.28;3.15;;;;;;;13.35;98.91;99431.34;4971783;28;20043;-62
2022/09/26 08:37:44;;;;;;;8.82;3.28;;;;;;;13.57;95.73;99435.41;4971580;28;20193;-61
2022/09/26 08:40:50;;;;;;;5.07;2.97;;;;;;;13.60;95.72;99424.25;4971720;28;20077;-60
2022/09/26 08:44:15;;;;;;;4.75;2.95;;;;;;;13.77;94.30;99421.91;4962464;28;20391;-60
2022/09/26 08:47:08;;;;;;;6.00;2.97;;;;;;;13.91;94.98;99423.47;4972887;28;20069;-60
2022/09/26 08:50:01;;;;;;;6.15;2.75;;;;;;;13.95;92.37;99422.00;4971379;28;20504;-62
2022/09/26 08:52:52;;;;;;;4.95;3.08;;;;;;;14.13;93.80;99418.59;4971363;28;20035;-62
2022/09/26 08:55:25;;;;;;;8.60;3.00;;;;;;;14.23;95.09;99418.16;4972707;28;20057;-62
2022/09/26 08:57:56;;;;;;;8.70;3.00;;;;;;;14.32;95.87;99419.50;4971428;28;20123;-61
2022/09/26 09:00:25;;;;;;;7.45;3.65;;;;;;;14.61;96.36;99426.94;4971232;28;20133;-61
2022/09/26 09:03:19;;;;;;;6.85;2.67;;;;;;;14.66;91.50;99426.28;4971462;28;20059;-61
2022/09/26 09:05:48;;;;;;;7.15;2.53;;;;;;;14.72;88.10;99427.25;4971220;28;20453;-59
2022/09/26 09:08:21;;;;;;;6.03;3.03;;;;;;;14.93;89.51;99414.28;4971277;28;20429;-62
2022/09/26 09:11:13;;;;;;;5.28;2.60;;;;;;;14.91;84.03;99412.84;4972206;28;20031;-62
2022/09/26 09:14:28;;;;;;;3.22;2.38;;;;;;;14.96;83.47;99414.88;4971296;28;20057;-62
2022/09/26 09:17:41;;;;;;;4.28;2.53;;;;;;;14.98;84.81;99416.28;4972181;28;20066;-62
2022/09/26 09:20:51;;;;;;;3.97;2.63;;;;;;;14.88;80.92;99400.72;4972313;28;20095;-61
2022/09/26 09:23:53;;;;;;;8.93;2.22;;;;;;;15.07;80.47;99406.09;4972490;28;20050;-62
2022/09/26 09:26:37;;;;;;;6.25;2.47;;;;;;;15.08;79.72;99405.06;4987248;28;20041;-62
2022/09/26 09:29:12;;;;;;;4.82;2.45;;;;;;;15.07;80.84;99398.88;4971036;28;20022;-62
2022/09/26 09:31:43;;;;;;;5.53;2.38;;;;;;;15.09;80.49;99394.09;4974694;28;20130;-60
2022/09/26 09:34:27;;;;;;;5.40;2.20;;;;;;;15.04;80.29;99390.44;4975369;28;20031;-62
2022/09/26 09:37:33;;;;;;;4.93;2.55;;;;;;;15.01;80.91;99388.22;4991241;28;20034;-62
2022/09/26 09:40:27;;;;;;;5.53;2.65;;;;;;;15.11;83.83;99388.50;4974737;28;20058;-62
2022/09/26 09:43:04;;;;;;;3.58;2.03;;;;;;;15.27;81.57;99379.06;4974905;28;20516;-62
2022/09/26 09:45:43;;;;;;;5.53;2.40;;;;;;;15.43;80.02;99379.25;4976188;28;20038;-62
2022/09/26 09:48:12;;;;;;;9.43;2.28;;;;;;;15.64;77.05;99375.28;4991080;28;20030;-62
2022/09/26 09:50:56;;;;;;;6.05;2.13;;;;;;;15.98;79.46;99371.09;4974286;28;20031;-63
2022/09/26 09:53:43;;;;;;;2.88;1.90;;;;;;;16.51;73.46;99364.06;4974713;28;20528;-63
2022/09/26 09:56:21;;;;;;;3.60;1.83;;;;;;;16.70;67.91;99351.34;4974661;28;20536;-63
2022/09/26 09:59:18;;;;;;;6.75;1.52;;;;;;;16.60;66.17;99349.22;4974947;28;20323;-62
2022/09/26 10:02:14;;;;;;;3.70;1.80;;;;;;;16.46;67.15;99353.19;4974371;28;20042;-63
2022/09/26 10:04:48;;;;;;;2.40;1.60;;;;;;;16.39;70.00;99345.22;4974472;28;20106;-62
2022/09/26 10:07:15;;;;;;;3.55;1.60;;;;;;;16.31;68.87;99345.59;4974368;28;20301;-62
2022/09/26 10:09:50;;;;;;;4.57;2.00;;;;;;;16.00;69.67;99320.66;4959281;28;20045;-61
2022/09/26 10:12:51;;;;;;;5.72;2.10;;;;;;;15.97;71.22;99329.19;4954504;28;20078;-60
2022/09/26 10:15:43;;;;;;;4.03;1.90;;;;;;;15.86;71.87;99327.28;4956111;28;20054;-62
2022/09/26 10:18:30;;;;;;;4.97;1.95;;;;;;;15.71;74.79;99319.66;4955851;29;20520;-60
2022/09/26 10:21:15;;;;;;;3.67;1.67;;;;;;;15.46;76.38;99325.13;4956095;28;20047;-60
2022/09/26 10:23:45;;;;;;;5.40;2.08;;;;;;;15.25;80.85;99325.59;4954740;29;20082;-60
2022/09/26 10:26:25;;;;;;;2.30;1.52;;;;;;;15.00;80.59;99324.91;4954651;28;20050;-60
2022/09/26 10:28:56;;;;;;;2.60;1.67;;;;;;;14.76;84.72;99315.88;4954560;29;20186;-61
2022/09/26 10:31:33;;;;;;;2.47;1.90;;;;;;;14.63;87.98;99322.19;4954858;29;20043;-61
2022/09/26 10:34:28;;;;;;;3.97;1.67;;;;;;;14.58;89.88;99305.94;4954738;29;20085;-61
2022/09/26 10:36:55;;;;;;;3.28;1.85;;;;;;;14.69;94.09;99310.59;4956048;28;20097;-61
2022/09/26 10:42:21;;;;;;;5.65;2.03;;;;;;;15.02;95.34;99304.03;4969908;28;20038;-61
2022/09/26 10:44:56;;;;;;;4.32;1.85;;;;;;;15.02;95.12;99304.84;4970540;28;20035;-61
2022/09/26 10:47:58;;;;;;;4.45;2.00;;;;;;;14.95;93.69;99292.56;4934200;29;20138;-61
2022/09/26 10:50:49;;;;;;;4.97;2.10;;;;;;;14.81;93.68;99297.28;4953694;28;20122;-61
2022/09/26 10:53:39;;;;;;;5.00;2.13;;;;;;;14.77;95.18;99291.53;4954381;29;20510;-61
2022/09/26 10:56:12;;;;;;;5.80;2.10;;;;;;;14.65;92.34;99286.06;4954187;28;20047;-60
2022/09/26 10:58:41;;;;;;;4.47;2.20;;;;;;;14.75;91.65;99288.25;4955626;28;20418;-60
2022/09/26 11:01:19;;;;;;;2.80;1.80;;;;;;;14.98;92.60;99289.44;4953908;28;20035;-61
2022/09/26 11:03:47;;;;;;;5.63;1.98;;;;;;;15.01;93.97;99291.66;4970309;28;20053;-61
2022/09/26 11:06:31;;;;;;;1.45;1.30;;;;;;;15.05;84.77;99298.19;4955386;28;20062;-61
2022/09/26 11:09:04;;;;;;;6.07;2.30;;;;;;;14.93;86.81;99288.25;4953983;29;20036;-62
2022/09/26 11:11:50;;;;;;;3.33;1.67;;;;;;;14.89;87.17;99283.56;4955129;29;20097;-61
2022/09/26 11:14:27;;;;;;;3.50;1.92;;;;;;;14.98;89.34;99276.03;4954010;28;20062;-61
2022/09/26 11:16:58;;;;;;;4.82;2.00;;;;;;;14.83;89.20;99271.88;4953856;28;20031;-61
2022/09/26 11:19:48;;;;;;;3.28;2.15;;;;;;;14.57;88.56;99275.66;4969331;28;20031;-61
2022/09/26 11:22:24;;;;;;;3.92;1.77;;;;;;;14.53;91.31;99273.63;4953027;29;20033;-61
2022/09/26 11:25:17;;;;;;;3.05;2.00;;;;;;;14.29;94.44;99291.38;4955213;28;20046;-60
2022/09/26 11:27:52;;;;;;;3.40;2.30;;;;;;;14.11;99.91;99287.59;4953743;29;20027;-61
2022/09/26 11:30:28;;;;;;;2.90;1.83;;;;;;;14.11;100.00;99271.53;4952643;29;20178;-61
2022/09/26 11:33:04;;;;;;;3.55;2.22;;;;;;;14.35;100.00;99263.72;4953509;29;20391;-60
2022/09/26 11:35:29;;;;;;;4.15;1.70;;;;;;;14.28;100.00;99270.97;4954770;28;20035;-61
2022/09/26 11:38:38;;;;;;;5.47;3.17;;;;;;;14.24;100.00;99265.25;4953405;29;20063;-61
2022/09/26 11:41:35;;;;;;;;;;;;;;;14.06;100.00;99257.97;4952821;29;20035;-59
2022/09/26 11:44:16;;;;;;;3.00;1.50;;;;;;;13.87;100.00;99271.53;4953299;29;20322;-61
2022/09/26 11:47:00;;;;;;;5.45;1.58;;;;;;;13.62;100.00;99285.72;4954567;28;20046;-61
2022/09/26 11:49:58;;;;;;;2.95;1.55;;;;;;;13.48;99.03;99276.94;4953234;28;20031;-60
2022/09/26 11:53:01;;;;;;;2.17;1.50;;;;;;;13.11;100.00;99259.88;4959122;28;20050;-60
2022/09/26 11:55:35;;;;;;;2.60;1.30;;;;;;;12.74;100.00;99254.25;4973788;28;20069;-58
2022/09/26 11:58:14;;;;;;;2.75;1.23;;;;;;;12.81;100.00;99240.88;4973870;28;20049;-60
2022/09/26 12:01:06;;;;;;;2.30;0.85;;;;;;;12.77;100.00;99237.78;4973501;28;20027;-61
2022/09/26 12:03:50;;;;;;;1.50;1.08;;;;;;;12.70;100.00;99233.50;4973693;28;20635;-61
2022/09/26 12:06:32;;;;;;;1.75;1.10;;;;;;;12.82;100.00;99223.78;4973889;28;20429;-60
2022/09/26 12:09:22;;;;;;;2.83;1.10;;;;;;;12.90;100.00;99220.88;4973568;28;20084;-61
2022/09/26 12:12:08;;;;;;;2.08;1.38;;;;;;;13.00;100.00;99205.22;4973229;28;20087;-60
2022/09/26 12:14:52;;;;;;;1.73;1.00;;;;;;;13.17;100.00;99207.38;4973271;28;20027;-60
2022/09/26 12:17:34;;;;;;;1.17;1.08;;;;;;;13.23;100.00;99211.88;4973208;28;20049;-59
2022/09/26 12:20:18;;;;;;;2.33;1.25;;;;;;;13.26;100.00;99206.13;4973178;28;20065;-61
2022/09/26 12:22:55;;;;;;;5.70;2.25;;;;;;;13.35;100.00;99207.50;4973280;28;20129;-62
2022/09/26 12:25:42;;;;;;;3.33;1.60;;;;;;;13.35;100.00;99217.38;4973157;28;20084;-61
2022/09/26 12:28:40;;;;;;;2.55;1.45;;;;;;;13.30;100.00;99218.84;4973254;28;20138;-63
2022/09/26 12:31:16;;;;;;;3.45;1.88;;;;;;;13.22;100.00;99215.59;4971673;28;20041;-62
2022/09/26 12:33:58;;;;;;;4.78;1.30;;;;;;;13.15;100.00;99196.88;4973042;28;20042;-63
2022/09/26 12:36:46;;;;;;;2.65;1.15;;;;;;;13.16;100.00;99181.66;4972952;28;20046;-64
2022/09/26 12:40:05;;;;;;;2.13;1.50;;;;;;;13.30;100.00;99184.09;4973055;28;20038;-64
2022/09/26 12:42:59;;;;;;;7.00;1.80;;;;;;;13.27;100.00;99173.81;4930932;28;20043;-63
2022/09/26 12:45:46;;;;;;;4.03;1.75;;;;;;;13.32;100.00;99167.00;4972791;28;20485;-63
2022/09/26 12:48:38;;;;;;;1.73;1.48;;;;;;;13.46;100.00;99149.81;4972885;28;20034;-63
2022/09/26 12:51:40;;;;;;;3.15;1.42;;;;;;;13.58;100.00;99164.94;4972525;28;20078;-63
2022/09/26 12:54:05;;;;;;;3.95;1.70;;;;;;;13.58;100.00;99164.94;4972679;28;20046;-64
2022/09/26 12:56:46;;;;;;;4.60;1.73;;;;;;;13.67;100.00;99170.00;4971380;28;20050;-62
2022/09/26 12:59:39;;;;;;;2.72;1.73;;;;;;;13.68;100.00;99155.56;4972840;28;20057;-64
2022/09/26 13:02:20;;;;;;;4.82;2.15;;;;;;;13.69;100.00;99142.00;4972437;28;20651;-64
2022/09/26 13:05:06;;;;;;;2.67;1.58;;;;;;;13.63;100.00;99144.72;4972513;28;20393;-63
2022/09/26 13:08:02;;;;;;;4.57;1.83;;;;;;;13.76;100.00;99129.38;4972554;28;20055;-62
2022/09/26 13:10:51;;;;;;;5.13;2.08;;;;;;;13.92;100.00;99127.97;4972159;28;20145;-62
2022/09/26 13:13:45;;;;;;;5.00;1.92;;;;;;;13.91;100.00;99125.53;4972581;28;20057;-64
2022/09/26 13:16:13;;;;;;;5.10;1.88;;;;;;;13.98;98.20;99123.59;4972432;28;20038;-63
2022/09/26 13:18:55;;;;;;;4.35;2.47;;;;;;;14.05;97.03;99124.34;4972388;28;20465;-64
2022/09/26 13:21:36;;;;;;;1.83;1.35;;;;;;;14.31;88.46;99118.69;4972159;28;20397;-63
2022/09/26 13:24:12;;;;;;;2.22;1.35;;;;;;;14.83;79.50;99112.88;4972433;28;20035;-63
2022/09/26 13:26:47;;;;;;;1.52;1.00;;;;;;;15.38;77.04;99110.78;4972316;28;20034;-63
2022/09/26 13:29:20;;;;;;;2.05;1.10;;;;;;;15.66;76.06;99109.31;4972273;28;20130;-63
2022/09/26 13:31:54;;;;;;;2.35;1.30;;;;;;;15.90;75.89;99108.25;4971993;28;20034;-63
2022/09/26 13:34:41;;;;;;;1.98;1.10;;;;;;;15.79;76.05;99102.91;4972310;28;20045;-63
2022/09/26 13:37:43;;;;;;;2.45;1.20;;;;;;;15.78;75.10;99099.41;4972380;28;20082;-62
2022/09/26 13:40:27;;;;;;;3.67;1.67;;;;;;;15.66;76.41;99098.59;4972325;28;20096;-63
2022/09/26 13:43:06;;;;;;;3.78;1.63;;;;;;;15.44;77.66;99093.75;4972331;28;20042;-63
2022/09/26 13:45:47;;;;;;;3.25;1.30;;;;;;;15.43;77.03;99081.38;4972326;28;20058;-63
2022/09/26 13:48:35;;;;;;;1.45;0.98;;;;;;;15.65;77.74;99083.53;4972254;28;20422;-62
2022/09/26 13:51:23;;;;;;;2.47;1.33;;;;;;;15.52;75.57;99075.66;4971970;28;20039;-63
2022/09/26 13:54:17;;;;;;;3.10;1.45;;;;;;;15.55;75.58;99072.53;4972115;28;20047;-64
2022/09/26 13:56:47;;;;;;;3.20;1.50;;;;;;;15.55;76.66;99075.22;4971961;28;20049;-64
2022/09/26 13:59:13;;;;;;;1.67;1.20;;;;;;;15.56;75.69;99061.53;4972181;28;20581;-63
2022/09/26 14:02:17;;;;;;;3.63;1.20;;;;;;;15.83;74.78;99066.47;4971799;28;20117;-64
2022/09/26 14:04:47;;;;;;;1.35;1.00;;;;;;;15.93;72.87;99059.44;4968354;28;20164;-63
2022/09/26 14:10:19;;;;;;;1.03;0.90;;;;;;;15.96;72.18;99050.09;4971917;28;20035;-63
2022/09/26 14:13:05;;;;;;;1.75;1.08;;;;;;;15.90;71.09;99038.41;4972051;28;20118;-62
2022/09/26 14:15:49;;;;;;;1.08;0.80;;;;;;;15.86;73.53;99039.16;4972444;28;20042;-64
2022/09/26 14:18:49;;;;;;;3.97;0.95;;;;;;;15.82;72.90;99029.91;4975572;28;20035;-64
2022/09/26 14:21:36;;;;;;;0.77;0.60;;;;;;;15.70;71.97;99025.38;4975216;28;20042;-64
2022/09/26 14:24:28;;;;;;;5.03;1.15;;;;;;;15.67;73.09;99019.69;4975540;28;20035;-64
2022/09/26 14:27:08;;;;;;;1.27;0.95;;;;;;;15.56;71.77;99015.94;4975493;28;20109;-64
2022/09/26 14:29:37;;;;;;;1.52;0.88;;;;;;;15.56;73.28;99015.94;4975339;28;20038;-63
2022/09/26 14:32:09;;;;;;;2.05;1.02;;;;;;;15.43;73.94;99022.34;4975034;28;20045;-64
2022/09/26 14:34:43;;;;;;;1.90;1.20;;;;;;;15.27;73.03;99023.06;4975404;28;20038;-64
2022/09/26 14:37:21;;;;;;;1.13;0.90;;;;;;;15.14;76.59;99013.38;4975250;28;20038;-63
2022/09/26 14:39:50;;;;;;;1.88;0.98;;;;;;;15.09;72.52;99015.94;4975124;28;20034;-63
2022/09/26 14:42:26;;;;;;;1.10;0.93;;;;;;;15.03;72.67;99005.31;4974810;28;20486;-63
2022/09/26 14:44:58;;;;;;;2.13;1.08;;;;;;;15.01;72.18;99002.06;4975038;28;20177;-62
2022/09/26 14:47:38;;;;;;;1.50;0.93;;;;;;;14.91;72.89;99003.44;4973709;28;20497;-63
2022/09/26 14:50:12;;;;;;;1.20;0.90;;;;;;;14.85;73.61;98999.00;4973531;28;20062;-64
2022/09/26 14:52:38;;;;;;;2.13;1.02;;;;;;;14.79;74.37;99004.47;4974929;28;20049;-64
2022/09/26 14:55:06;;;;;;;1.38;1.13;;;;;;;14.76;74.70;98988.84;4974677;28;20052;-64
2022/09/26 14:57:33;;;;;;;1.77;0.73;;;;;;;14.75;73.16;98990.72;4974722;28;20047;-63
2022/09/26 15:00:01;;;;;;;1.13;0.77;;;;;;;14.76;73.17;98989.66;4974633;28;20398;-64
2022/09/26 15:02:37;;;;;;;2.05;1.00;;;;;;;14.73;74.94;98989.31;4974606;28;20045;-64
2022/09/26 15:05:05;;;;;;;1.20;0.95;;;;;;;14.79;74.07;98991.06;4974731;28;20486;-64
2022/09/26 15:07:39;;;;;;;2.42;0.85;;;;;;;14.83;74.24;98987.69;4974522;28;20041;-64
2022/09/26 15:10:17;;;;;;;1.02;0.70;;;;;;;14.86;74.08;98984.53;4974388;28;20062;-64
2022/09/26 15:12:48;;;;;;;2.67;0.70;;;;;;;14.84;75.14;98991.19;4974626;28;20034;-64
2022/09/26 15:15:33;;;;;;;2.42;0.90;;;;;;;14.85;75.11;98985.59;4974391;28;20120;-64
2022/09/26 15:18:10;;;;;;;3.67;1.25;;;;;;;14.81;74.73;98979.09;4974510;28;20152;-64
2022/09/26 15:20:49;;;;;;;1.58;0.90;;;;;;;14.89;73.66;98969.88;4974213;28;20046;-64
2022/09/26 15:23:20;;;;;;;1.60;1.00;;;;;;;15.02;74.85;98969.66;4974299;28;20038;-64
2022/09/26 15:25:45;;;;;;;1.95;1.00;;;;;;;15.15;73.79;98968.59;4974307;28;20121;-64
2022/09/26 15:28:11;;;;;;;1.08;0.82;;;;;;;15.24;74.21;98964.50;4973254;28;20090;-64
2022/09/26 15:30:38;;;;;;;1.00;0.82;;;;;;;15.32;74.12;98957.97;4973989;28;20493;-64
2022/09/26 15:33:06;;;;;;;2.10;0.98;;;;;;;15.31;73.35;98950.97;4974136;28;20541;-63
2022/09/26 15:35:32;;;;;;;0.93;0.80;;;;;;;15.22;71.99;98941.66;4973689;28;20046;-63
2022/09/26 15:38:08;;;;;;;1.23;0.90;;;;;;;15.15;73.06;98944.47;4974188;28;20039;-63
2022/09/26 15:40:33;;;;;;;1.35;1.00;;;;;;;15.04;71.40;98927.31;4973795;28;20031;-62
2022/09/26 15:43:12;;;;;;;1.67;1.13;;;;;;;15.02;72.40;98924.06;4973965;28;20047;-61
2022/09/26 15:45:58;;;;;;;2.55;0.90;;;;;;;14.91;74.65;98923.00;4972746;28;20049;-61
2022/09/26 15:48:24;;;;;;;1.85;1.00;;;;;;;14.91;73.44;98909.59;4973970;28;20478;-63
2022/09/26 15:50:57;;;;;;;1.25;1.00;;;;;;;14.92;73.71;98915.78;4973536;28;20039;-63
2022/09/26 15:53:46;;;;;;;1.13;0.80;;;;;;;14.90;72.22;98926.75;4973875;28;20042;-63
2022/09/26 15:56:13;;;;;;;1.67;0.85;;;;;;;14.88;72.02;98917.31;4973864;28;20065;-63
2022/09/26 15:58:38;;;;;;;1.42;0.80;;;;;;;14.81;70.58;98920.09;4973788;28;20043;-64
2022/09/26 16:01:06;;;;;;;1.70;0.90;;;;;;;14.78;70.90;98915.19;4973485;28;20054;-64
2022/09/26 16:03:39;;;;;;;1.35;0.80;;;;;;;14.74;70.53;98916.72;4973731;28;20045;-63
2022/09/26 16:06:11;;;;;;;1.65;0.88;;;;;;;14.71;72.04;98908.31;4972450;28;20494;-63
2022/09/26 16:08:40;;;;;;;2.10;0.70;;;;;;;14.63;71.38;98898.75;4973781;28;20509;-63
2022/09/26 16:11:06;;;;;;;1.02;0.65;;;;;;;14.58;71.69;98895.97;4973269;28;20039;-63
2022/09/26 16:13:41;;;;;;;0.73;0.60;;;;;;;14.60;71.23;98883.94;4973462;28;20049;-65
2022/09/26 16:16:14;;;;;;;2.08;0.98;;;;;;;14.52;71.32;98891.53;4972020;28;20034;-64
2022/09/26 16:18:50;;;;;;;1.77;1.02;;;;;;;14.50;71.62;98885.59;4972366;28;20044;-62
2022/09/26 16:21:22;;;;;;;1.63;0.90;;;;;;;14.49;72.61;98884.78;4973626;28;20395;-65
2022/09/26 16:23:50;;;;;;;0.90;0.80;;;;;;;14.45;72.05;98886.25;4973235;28;20047;-64
2022/09/26 16:26:23;;;;;;;1.80;1.02;;;;;;;14.45;71.12;98882.75;4973294;28;20034;-65
2022/09/26 16:28:52;;;;;;;0.85;0.80;;;;;;;14.40;71.46;98880.75;4973157;28;20051;-65
2022/09/26 16:31:26;;;;;;;2.58;0.98;;;;;;;14.40;72.63;98878.88;4995314;23;20073;-61
2022/09/26 16:33:53;;;;;;;2.47;1.20;;;;;;;14.38;72.47;98867.59;4973076;28;20489;-58
2022/09/26 16:36:22;;;;;;;2.05;0.80;;;;;;;14.34;71.34;98863.78;4972798;28;20039;-60
2022/09/26 16:39:04;;;;;;;2.50;1.30;;;;;;;14.37;71.44;98873.19;4972959;28;20042;-55
2022/09/26 16:41:34;;;;;;;1.20;0.88;;;;;;;14.34;71.43;98869.13;4972860;28;20477;-55
2022/09/26 16:44:35;;;;;;;0.90;0.73;;;;;;;14.35;70.01;98862.72;4973179;28;20035;-51
2022/09/26 16:47:04;;;;;;;2.05;1.10;;;;;;;14.28;70.84;98853.13;4971727;28;20042;-58
2022/09/26 16:49:31;;;;;;;1.70;0.75;;;;;;;14.34;70.46;98862.91;4972924;28;20397;-59
2022/09/26 16:52:09;;;;;;;1.27;0.85;;;;;;;14.39;70.43;98863.06;4972496;28;20038;-58
2022/09/26 16:54:34;;;;;;;0.57;0.57;;;;;;;14.35;71.30;98865.41;4972796;28;20030;-59